Weather at Copenhagen Kastrup Airport

Public forecast

Using degrees Celsius for public forecast. Weather courtesy of forecast.io.

Current aviation weather report (METAR) for Copenhagen Kastrup Airport

Retrieved 2021/07/28 12:20 UTC (22 minutes ago):

EKCH 281220Z 20013KT 9999 FEW025TCU SCT080 22/17 Q1008 TEMPO FEW030CB

Aviation forecast (TAF) for Copenhagen Kastrup Airport

Retrieved 2021/07/28 12:30 UTC (12 minutes ago):

TAF EKCH 281053Z 2812/2912 21008KT 9999 SCT040 PROB40 2812/2912 SCT035CB